This is the latest recevied weather packets stored in our database for station/object KC3BHK-2. If no packets are shown the sender has not sent any weather packets the latest 10 day(s).
| Time | Temp. | Humidity | Pressure | Rain* | Wind** | Luminosity | Snow |
|---|---|---|---|---|---|---|---|
| 1777828710 | 15° C | - | - | 0 mm | 4.47 m/s, 271° | - | - |
| 1777828405 | 16.11° C | - | - | 0 mm | 4.92 m/s, 308° | - | - |
| 1777828098 | 16.67° C | - | - | 0 mm | 0 m/s | - | - |
| 1777827793 | 14.44° C | - | - | 0 mm | 0.45 m/s, 24° | - | - |
| 1777827488 | 13.33° C | - | - | 0 mm | 8.05 m/s, 262° | - | - |
| 1777827183 | 13.33° C | - | - | 0 mm | 3.13 m/s, 28° | - | - |
| 1777826879 | 15.56° C | - | - | 0 mm | 3.58 m/s, 294° | - | - |
| 1777826574 | 15.56° C | - | - | 0 mm | 1.79 m/s, 359° | - | - |
| 1777826266 | 15° C | - | - | 0 mm | 1.34 m/s, 333° | - | - |
| 1777825961 | 14.44° C | - | - | 0 mm | 5.81 m/s, 274° | - | - |
| 1777825657 | 14.44° C | - | - | 0 mm | 1.79 m/s, 297° | - | - |
| 1777825352 | 14.44° C | - | - | 0 mm | 2.68 m/s, 332° | - | - |
| 1777825047 | 16.11° C | - | - | 0 mm | 3.13 m/s, 295° | - | - |
| 1777824742 | 15.56° C | - | - | 0 mm | 0.89 m/s, 329° | - | - |
| 1777824435 | 15° C | - | - | 0 mm | 2.24 m/s, 342° | - | - |
| 1777824130 | 13.33° C | - | - | 0 mm | 1.34 m/s, 345° | - | - |
| 1777823825 | 12.22° C | - | - | 0 mm | 2.24 m/s, 287° | - | - |
| 1777823520 | 13.33° C | - | - | 0 mm | 0.45 m/s, 277° | - | - |
| 1777823216 | 12.22° C | - | - | 0 mm | 0 m/s | - | - |
| 1777822911 | 13.33° C | - | - | 0 mm | 3.58 m/s, 309° | - | - |
| 1777822603 | 11.67° C | - | - | 0 mm | 3.13 m/s, 312° | - | - |
| 1777822299 | 14.44° C | - | - | 0 mm | 4.02 m/s, 266° | - | - |
| 1777821994 | 14.44° C | - | - | 0 mm | 1.34 m/s, 342° | - | - |
| 1777821689 | 13.89° C | - | - | 0 mm | 3.58 m/s, 323° | - | - |
| 1777821384 | 13.89° C | - | - | 0 mm | 2.68 m/s, 343° | - | - |
* Rain latest hour (hover to see other rain measurements)
** Current wind speed in m/s (hover to see current wind gust speed)